Create Custom Reports and Graphics: Custom Report

Modesto Jr College

Current Conditions

1/27/22 8:45 PM (-08:00)
Updated Every 15 Minutes
Temp 41.4 °F   1.9
RH 78 %   9
Dew Pt 35.0 °F   4.6
Wind Spd 0.5 mph
Wind Dir N | 2 °
Wind Gust 1.3 mph   3.1
Latest Rain 0.00 In
Daily Rain 0.00 In
Daily Min Temp 30.2 °F   0.2
Daily Max Temp 67.6 °F   2.6

Last 24 Hours

Modesto Jr College

15 Minute Data | America/Los_Angeles
as of 1/27/22 8:50 PM PST
Date & Time Temp (°F) RH (%) Dew Pt (°F) Wind Spd (mph) Wind Dir (°) Wind Gust (mph) Latest Rain (In) Daily Rain (In) Daily Min Temp (°F) Daily Max Temp (°F)
1/27/22 - 2045 41.4 78 35.0 0.5 N | 2 1.3 0.00 0.00 30.2 67.6
1/27/22 - 2030 42.1 77 35.4 0.0 N | 2 0.7 0.00 0.00 30.2 67.6
1/27/22 - 2015 42.3 77 35.6 0.3 N | 2 0.9 0.00 0.00 30.2 67.6
1/27/22 - 2000 41.8 77 35.3 0.1 N | 2 0.9 0.00 0.00 30.2 67.6
1/27/22 - 1945 42.0 76 35.1 0.1 N | 2 1.1 0.00 0.00 30.2 67.6
1/27/22 - 1930 42.2 74 34.6 0.0 WNW | 292 0.7 0.00 0.00 30.2 67.6
1/27/22 - 1915 43.8 71 34.9 0.0 N | 0 0.0 0.00 0.00 30.2 67.6
1/27/22 - 1900 44.5 69 34.9 0.0 N | 0 0.0 0.00 0.00 30.2 67.6
1/27/22 - 1845 45.5 67 35.1 0.2 NNW | 348 1.3 0.00 0.00 30.2 67.6
1/27/22 - 1830 47.4 63 35.5 0.1 SW | 219 0.9 0.00 0.00 30.2 67.6
1/27/22 - 1815 49.1 58 34.9 0.5 NW | 306 1.5 0.00 0.00 30.2 67.6
1/27/22 - 1800 52.0 52 34.8 0.3 SW | 228 1.5 0.00 0.00 30.2 67.6
1/27/22 - 1745 54.7 46 34.4 1.6 WSW | 237 2.2 0.00 0.00 30.2 67.6
1/27/22 - 1730 56.8 42 34.2 2.1 WSW | 249 3.3 0.00 0.00 30.2 67.6
1/27/22 - 1715 58.5 41 34.7 2.0 W | 262 3.1 0.00 0.00 30.2 67.6
1/27/22 - 1700 60.0 40 35.6 2.9 W | 264 5.0 0.00 0.00 30.2 67.6
1/27/22 - 1645 62.6 37 35.6 3.4 WSW | 252 5.0 0.00 0.00 30.2 67.6
1/27/22 - 1630 64.0 31 32.8 1.8 WSW | 242 3.9 0.00 0.00 30.2 67.6
1/27/22 - 1615 65.2 30 32.6 1.0 W | 281 2.6 0.00 0.00 30.2 67.6
1/27/22 - 1600 65.2 30 33.3 1.7 WSW | 245 4.2 0.00 0.00 30.2 67.6
1/27/22 - 1545 65.3 30 32.7 2.6 SW | 236 5.0 0.00 0.00 30.2 67.6
1/27/22 - 1530 65.1 29 32.4 2.3 W | 260 4.8 0.00 0.00 30.2 67.6
1/27/22 - 1515 64.3 30 32.2 2.0 N | 354 5.7 0.00 0.00 30.2 67.6
1/27/22 - 1500 65.1 29 32.1 1.8 ENE | 63 5.9 0.00 0.00 30.2 67.6
1/27/22 - 1445 67.0 28 33.1 2.1 SW | 235 5.0 0.00 0.00 30.2 67.6
1/27/22 - 1430 65.0 31 33.7 2.6 WNW | 282 5.3 0.00 0.00 30.2 67.4
1/27/22 - 1415 64.4 31 33.3 3.0 NNW | 338 6.4 0.00 0.00 30.2 67.4
1/27/22 - 1400 66.0 30 33.4 2.0 W | 270 4.8 0.00 0.00 30.2 67.4
1/27/22 - 1345 64.2 32 33.9 2.1 N | 352 5.9 0.00 0.00 30.2 65.6
1/27/22 - 1330 63.9 31 33.1 2.6 N | 3 6.4 0.00 0.00 30.2 65.3
1/27/22 - 1315 64.1 30 32.0 1.2 SE | 124 3.7 0.00 0.00 30.2 65.3
1/27/22 - 1300 63.0 33 33.3 1.8 SSW | 209 4.8 0.00 0.00 30.2 64.9
1/27/22 - 1245 63.6 33 34.2 1.7 SW | 214 5.0 0.00 0.00 30.2 64.9
1/27/22 - 1230 62.0 35 34.4 2.4 SE | 134 4.8 0.00 0.00 30.2 63.2
1/27/22 - 1215 62.0 34 33.0 1.5 SSW | 197 4.2 0.00 0.00 30.2 63.2
1/27/22 - 1200 61.6 34 32.8 1.2 WSW | 258 3.9 0.00 0.00 30.2 62.3
1/27/22 - 1145 60.6 37 34.4 1.9 SW | 227 4.4 0.00 0.00 30.2 61.5
1/27/22 - 1130 59.7 42 36.4 1.9 WSW | 249 4.8 0.00 0.00 30.2 60.2
1/27/22 - 1115 57.6 46 36.7 1.5 S | 189 4.6 0.00 0.00 30.2 59.4
1/27/22 - 1100 55.7 49 36.9 2.6 SSE | 163 5.7 0.00 0.00 30.2 56.5
1/27/22 - 1045 55.0 52 37.6 2.7 SSE | 164 5.5 0.00 0.00 30.2 55.4
1/27/22 - 1030 53.6 55 37.9 2.5 SE | 130 4.6 0.00 0.00 30.2 54.8
1/27/22 - 1015 51.5 61 38.4 2.9 SSE | 147 5.0 0.00 0.00 30.2 52.4
1/27/22 - 1000 50.4 64 38.8 2.4 SSE | 149 4.4 0.00 0.00 30.2 51.2
1/27/22 - 0945 49.1 70 39.7 2.4 SE | 140 4.4 0.00 0.00 30.2 49.8
1/27/22 - 0930 47.2 81 41.5 2.5 SE | 139 3.9 0.00 0.00 30.2 48.1
1/27/22 - 0915 45.2 91 42.8 2.2 ESE | 115 3.9 0.00 0.00 30.2 46.4
1/27/22 - 0900 43.7 95 42.4 3.2 E | 81 4.6 0.00 0.00 30.2 44.5
1/27/22 - 0845 42.0 96 41.0 1.0 ENE | 74 3.5 0.00 0.00 30.2 43.4
1/27/22 - 0830 39.0 96 38.0 0.0 WSW | 247 0.4 0.00 0.00 30.2 41.1
1/27/22 - 0815 36.4 96 35.5 1.4 WSW | 244 2.2 0.00 0.00 30.2 40.3
1/27/22 - 0800 34.9 97 34.0 0.1 SSW | 208 0.9 0.00 0.00 30.2 40.3
1/27/22 - 0745 32.5 96 31.6 0.2 SSW | 208 1.3 0.00 0.00 30.2 40.3
1/27/22 - 0730 31.1 96 30.1 0.8 SSW | 211 1.5 0.00 0.00 30.2 40.3
1/27/22 - 0715 30.6 95 29.4 0.0 NNE | 15 0.7 0.00 0.00 30.2 40.3
1/27/22 - 0700 31.7 96 30.6 0.0 N | 0 0.0 0.00 0.00 31.1 40.3
1/27/22 - 0645 32.5 96 31.4 0.1 NNE | 15 0.9 0.00 0.00 31.5 40.3
1/27/22 - 0630 33.1 96 32.0 0.0 N | 0 0.0 0.00 0.00 31.5 40.3
1/27/22 - 0615 32.8 96 31.8 0.0 N | 0 0.0 0.00 0.00 31.5 40.3
1/27/22 - 0600 33.2 96 32.1 0.3 N | 9 1.5 0.00 0.00 31.5 40.3
1/27/22 - 0545 33.1 96 32.0 0.8 NNE | 16 1.5 0.00 0.00 31.5 40.3
1/27/22 - 0530 32.4 95 31.3 0.0 N | 0 0.0 0.00 0.00 31.5 40.3
1/27/22 - 0515 33.1 96 32.1 0.1 NNE | 15 1.3 0.00 0.00 31.5 40.3
1/27/22 - 0500 32.2 95 31.0 0.7 NNE | 15 1.8 0.00 0.00 31.5 40.3
1/27/22 - 0445 32.5 95 31.4 0.1 NNW | 345 1.1 0.00 0.00 32.0 40.3
1/27/22 - 0430 32.3 95 31.0 0.2 NNW | 345 1.3 0.00 0.00 32.0 40.3
1/27/22 - 0415 33.2 95 31.9 0.0 N | 0 0.0 0.00 0.00 32.5 40.3
1/27/22 - 0400 33.4 95 32.2 0.0 N | 0 0.0 0.00 0.00 32.8 40.3
1/27/22 - 0345 33.7 94 32.3 0.0 NNW | 345 0.9 0.00 0.00 32.8 40.3
1/27/22 - 0330 34.7 95 33.5 0.5 N | 349 1.3 0.00 0.00 34.0 40.3
1/27/22 - 0315 34.9 95 33.5 0.0 ESE | 108 1.1 0.00 0.00 34.0 40.3
1/27/22 - 0300 35.2 95 33.9 0.0 N | 3 0.7 0.00 0.00 34.7 40.3
1/27/22 - 0245 35.8 94 34.2 0.1 N | 3 1.1 0.00 0.00 34.8 40.3
1/27/22 - 0230 36.9 95 35.5 0.1 N | 3 1.1 0.00 0.00 36.6 40.3
1/27/22 - 0215 37.7 95 36.3 0.3 SE | 128 1.5 0.00 0.00 36.9 40.3
1/27/22 - 0200 37.7 94 36.2 0.2 NNE | 22 1.1 0.00 0.00 36.9 40.3
1/27/22 - 0145 38.2 94 36.7 1.3 ENE | 57 1.8 0.00 0.00 36.9 40.3
1/27/22 - 0130 38.4 95 37.0 0.5 SE | 127 1.3 0.00 0.00 36.9 40.3
1/27/22 - 0115 38.7 93 37.0 1.2 NNW | 332 2.6 0.00 0.00 37.3 40.3
1/27/22 - 0100 38.9 94 37.2 0.1 W | 275 1.1 0.00 0.00 38.1 40.3
1/27/22 - 0045 39.6 94 37.8 0.2 WNW | 286 1.3 0.00 0.00 38.4 40.3
1/27/22 - 0030 39.6 94 38.0 0.0 WNW | 294 0.7 0.00 0.00 38.4 40.3
1/27/22 - 0015 39.3 92 37.1 0.7 NW | 306 1.5 0.00 0.00 38.4 39.9
1/27/22 - 0000 40.5 91 38.1 0.0 N | 0 0.0 0.00 0.00 30.4 65.1
1/26/22 - 2345 41.5 91 39.0 0.3 NW | 308 1.5 0.00 0.00 30.4 65.1
1/26/22 - 2330 41.4 92 39.2 1.4 NNW | 329 2.4 0.00 0.00 30.4 65.1
1/26/22 - 2315 41.4 91 39.0 1.5 WNW | 291 2.4 0.00 0.00 30.4 65.1
1/26/22 - 2300 41.6 92 39.4 1.8 WNW | 289 3.3 0.00 0.00 30.4 65.1
1/26/22 - 2245 41.5 92 39.3 1.8 W | 276 3.5 0.00 0.00 30.4 65.1
1/26/22 - 2230 41.8 92 39.6 1.4 WNW | 284 2.6 0.00 0.00 30.4 65.1
1/26/22 - 2215 42.2 92 40.1 0.7 NW | 312 1.8 0.00 0.00 30.4 65.1
1/26/22 - 2200 41.6 92 39.5 1.3 NW | 317 2.4 0.00 0.00 30.4 65.1
1/26/22 - 2145 41.3 91 38.8 1.3 WNW | 299 2.6 0.00 0.00 30.4 65.1
1/26/22 - 2130 41.9 89 39.0 1.4 W | 281 2.4 0.00 0.00 30.4 65.1
1/26/22 - 2115 42.7 89 39.7 1.6 WNW | 290 3.5 0.00 0.00 30.4 65.1
1/26/22 - 2100 42.5 88 39.1 2.4 W | 273 4.6 0.00 0.00 30.4 65.1
1/26/22 - 2045 43.3 87 39.7 2.4 W | 271 4.4 0.00 0.00 30.4 65.1
Max 67.0 97 42.8 3.4 - 6.4 0.00 0.00 38.4 67.6
Avg 46.3 72 35.3 1.1 - 2.6 0.00 - - -
Min 30.6 28 29.4 0.0 - 0.0 0.00 0.00 30.2 39.9
Total - - - - - - 0.00 - - -

Last 7 Days

Modesto Jr College

Daily Data | America/Los_Angeles
as of 1/27/22 8:50 PM PST
Date Daily ETo (in)
1/26/22 0.062
1/25/22 0.057
1/24/22 0.062
1/23/22 0.042
1/22/22 0.060
1/21/22 0.105
1/20/22 0.055
Max 0.105
Min 0.042